sensor_id;sensor_type;location;lat;lon;timestamp;P1;durP1;ratioP1;P2;durP2;ratioP2
45254;SDS011;30989;52.078;21.014;2023-05-13T00:01:34;9.80;;;5.18;;
45254;SDS011;30989;52.078;21.014;2023-05-13T00:04:03;14.15;;;6.50;;
45254;SDS011;30989;52.078;21.014;2023-05-13T00:06:30;18.35;;;7.95;;
45254;SDS011;30989;52.078;21.014;2023-05-13T00:08:57;15.18;;;6.65;;
45254;SDS011;30989;52.078;21.014;2023-05-13T00:11:23;18.17;;;7.13;;
45254;SDS011;30989;52.078;21.014;2023-05-13T00:13:48;17.48;;;7.40;;
45254;SDS011;30989;52.078;21.014;2023-05-13T00:16:14;15.88;;;7.18;;
45254;SDS011;30989;52.078;21.014;2023-05-13T00:18:39;15.70;;;7.00;;
45254;SDS011;30989;52.078;21.014;2023-05-13T00:21:05;13.07;;;6.35;;
45254;SDS011;30989;52.078;21.014;2023-05-13T00:23:30;19.33;;;7.07;;
45254;SDS011;30989;52.078;21.014;2023-05-13T00:25:56;12.73;;;6.55;;
45254;SDS011;30989;52.078;21.014;2023-05-13T00:28:22;13.25;;;6.65;;
45254;SDS011;30989;52.078;21.014;2023-05-13T00:30:48;13.15;;;6.57;;
45254;SDS011;30989;52.078;21.014;2023-05-13T00:33:13;16.85;;;6.90;;
45254;SDS011;30989;52.078;21.014;2023-05-13T00:35:40;12.25;;;6.43;;
45254;SDS011;30989;52.078;21.014;2023-05-13T00:38:07;11.45;;;6.35;;
45254;SDS011;30989;52.078;21.014;2023-05-13T00:40:32;13.48;;;6.28;;
45254;SDS011;30989;52.078;21.014;2023-05-13T00:43:01;18.88;;;7.18;;
45254;SDS011;30989;52.078;21.014;2023-05-13T00:45:27;14.13;;;6.80;;
45254;SDS011;30989;52.078;21.014;2023-05-13T00:47:52;14.88;;;6.70;;
45254;SDS011;30989;52.078;21.014;2023-05-13T00:50:18;17.50;;;7.55;;
45254;SDS011;30989;52.078;21.014;2023-05-13T00:52:45;19.90;;;7.95;;
45254;SDS011;30989;52.078;21.014;2023-05-13T00:55:13;23.60;;;9.15;;
45254;SDS011;30989;52.078;21.014;2023-05-13T00:57:39;21.13;;;9.60;;
45254;SDS011;30989;52.078;21.014;2023-05-13T01:00:04;19.08;;;8.23;;
45254;SDS011;30989;52.078;21.014;2023-05-13T01:02:41;17.80;;;8.48;;
45254;SDS011;30989;52.078;21.014;2023-05-13T01:06:13;20.10;;;7.35;;
45254;SDS011;30989;52.078;21.014;2023-05-13T01:13:23;21.05;;;8.02;;
45254;SDS011;30989;52.078;21.014;2023-05-13T01:15:55;16.13;;;7.63;;
45254;SDS011;30989;52.078;21.014;2023-05-13T01:18:43;16.38;;;8.43;;
45254;SDS011;30989;52.078;21.014;2023-05-13T01:21:10;16.80;;;7.38;;
45254;SDS011;30989;52.078;21.014;2023-05-13T01:23:36;21.80;;;7.50;;
45254;SDS011;30989;52.078;21.014;2023-05-13T01:26:03;15.48;;;7.47;;
45254;SDS011;30989;52.078;21.014;2023-05-13T01:28:30;18.92;;;7.65;;
45254;SDS011;30989;52.078;21.014;2023-05-13T01:30:56;16.58;;;7.78;;
45254;SDS011;30989;52.078;21.014;2023-05-13T01:33:23;14.38;;;8.02;;
45254;SDS011;30989;52.078;21.014;2023-05-13T01:35:50;20.25;;;8.40;;
45254;SDS011;30989;52.078;21.014;2023-05-13T01:38:18;16.92;;;8.30;;
45254;SDS011;30989;52.078;21.014;2023-05-13T01:40:48;16.27;;;7.85;;
45254;SDS011;30989;52.078;21.014;2023-05-13T01:43:15;19.17;;;8.68;;
45254;SDS011;30989;52.078;21.014;2023-05-13T01:45:40;18.58;;;8.77;;
45254;SDS011;30989;52.078;21.014;2023-05-13T01:48:06;16.65;;;8.30;;
45254;SDS011;30989;52.078;21.014;2023-05-13T01:50:42;15.35;;;7.70;;
45254;SDS011;30989;52.078;21.014;2023-05-13T01:53:08;24.15;;;8.68;;
45254;SDS011;30989;52.078;21.014;2023-05-13T01:55:34;16.15;;;8.20;;
45254;SDS011;30989;52.078;21.014;2023-05-13T01:58:01;17.05;;;7.68;;
45254;SDS011;30989;52.078;21.014;2023-05-13T02:00:27;17.40;;;8.18;;
45254;SDS011;30989;52.078;21.014;2023-05-13T02:02:53;18.25;;;8.30;;
45254;SDS011;30989;52.078;21.014;2023-05-13T02:05:18;19.35;;;8.32;;
45254;SDS011;30989;52.078;21.014;2023-05-13T02:07:44;19.17;;;9.40;;
45254;SDS011;30989;52.078;21.014;2023-05-13T02:10:10;18.70;;;8.23;;
45254;SDS011;30989;52.078;21.014;2023-05-13T02:12:35;15.50;;;7.65;;
45254;SDS011;30989;52.078;21.014;2023-05-13T02:15:02;16.65;;;8.68;;
45254;SDS011;30989;52.078;21.014;2023-05-13T02:17:29;25.75;;;8.23;;
45254;SDS011;30989;52.078;21.014;2023-05-13T02:19:54;19.88;;;7.45;;
45254;SDS011;30989;52.078;21.014;2023-05-13T02:22:20;18.33;;;9.23;;
45254;SDS011;30989;52.078;21.014;2023-05-13T02:24:46;18.75;;;8.25;;
45254;SDS011;30989;52.078;21.014;2023-05-13T02:27:11;29.67;;;9.18;;
45254;SDS011;30989;52.078;21.014;2023-05-13T02:29:40;21.58;;;8.95;;
45254;SDS011;30989;52.078;21.014;2023-05-13T02:32:06;17.38;;;9.43;;
45254;SDS011;30989;52.078;21.014;2023-05-13T02:34:32;18.02;;;7.65;;
45254;SDS011;30989;52.078;21.014;2023-05-13T02:36:57;16.15;;;7.75;;
45254;SDS011;30989;52.078;21.014;2023-05-13T02:39:23;13.85;;;8.15;;
45254;SDS011;30989;52.078;21.014;2023-05-13T02:41:49;17.20;;;8.45;;
45254;SDS011;30989;52.078;21.014;2023-05-13T02:44:15;20.58;;;8.43;;
45254;SDS011;30989;52.078;21.014;2023-05-13T02:46:41;25.63;;;7.85;;
45254;SDS011;30989;52.078;21.014;2023-05-13T02:49:08;22.30;;;9.30;;
45254;SDS011;30989;52.078;21.014;2023-05-13T02:51:34;21.58;;;8.85;;
45254;SDS011;30989;52.078;21.014;2023-05-13T02:53:59;23.58;;;11.38;;
45254;SDS011;30989;52.078;21.014;2023-05-13T02:56:25;21.58;;;9.35;;
45254;SDS011;30989;52.078;21.014;2023-05-13T02:58:51;21.48;;;10.13;;
45254;SDS011;30989;52.078;21.014;2023-05-13T03:01:16;20.70;;;9.18;;
45254;SDS011;30989;52.078;21.014;2023-05-13T03:03:42;19.23;;;8.32;;
45254;SDS011;30989;52.078;21.014;2023-05-13T03:06:07;20.58;;;8.75;;
45254;SDS011;30989;52.078;21.014;2023-05-13T03:08:33;18.42;;;9.30;;
45254;SDS011;30989;52.078;21.014;2023-05-13T03:10:58;18.63;;;9.07;;
45254;SDS011;30989;52.078;21.014;2023-05-13T03:13:25;22.98;;;9.63;;
45254;SDS011;30989;52.078;21.014;2023-05-13T03:15:50;23.52;;;9.32;;
45254;SDS011;30989;52.078;21.014;2023-05-13T03:18:15;18.20;;;9.18;;
45254;SDS011;30989;52.078;21.014;2023-05-13T03:20:41;21.05;;;8.95;;
45254;SDS011;30989;52.078;21.014;2023-05-13T03:23:06;22.25;;;9.68;;
45254;SDS011;30989;52.078;21.014;2023-05-13T03:25:32;19.08;;;9.38;;
45254;SDS011;30989;52.078;21.014;2023-05-13T03:27:58;20.40;;;8.73;;
45254;SDS011;30989;52.078;21.014;2023-05-13T03:30:26;21.83;;;9.70;;
45254;SDS011;30989;52.078;21.014;2023-05-13T03:33:00;21.77;;;9.18;;
45254;SDS011;30989;52.078;21.014;2023-05-13T03:35:25;21.08;;;10.65;;
45254;SDS011;30989;52.078;21.014;2023-05-13T03:37:51;24.75;;;9.93;;
45254;SDS011;30989;52.078;21.014;2023-05-13T03:40:17;49.15;;;20.90;;
45254;SDS011;30989;52.078;21.014;2023-05-13T03:42:43;23.13;;;9.25;;
45254;SDS011;30989;52.078;21.014;2023-05-13T03:45:09;23.40;;;9.15;;
45254;SDS011;30989;52.078;21.014;2023-05-13T03:47:37;19.67;;;9.05;;
45254;SDS011;30989;52.078;21.014;2023-05-13T03:50:10;20.15;;;9.20;;
45254;SDS011;30989;52.078;21.014;2023-05-13T03:52:41;21.83;;;8.48;;
45254;SDS011;30989;52.078;21.014;2023-05-13T03:55:07;17.75;;;8.43;;
45254;SDS011;30989;52.078;21.014;2023-05-13T03:57:33;17.40;;;8.15;;
45254;SDS011;30989;52.078;21.014;2023-05-13T03:59:58;18.15;;;8.25;;
45254;SDS011;30989;52.078;21.014;2023-05-13T04:02:24;17.25;;;8.50;;
45254;SDS011;30989;52.078;21.014;2023-05-13T04:04:49;19.08;;;8.13;;
45254;SDS011;30989;52.078;21.014;2023-05-13T04:07:15;19.00;;;9.07;;
45254;SDS011;30989;52.078;21.014;2023-05-13T04:09:40;28.13;;;11.13;;
45254;SDS011;30989;52.078;21.014;2023-05-13T04:12:06;31.50;;;15.63;;
45254;SDS011;30989;52.078;21.014;2023-05-13T04:14:32;25.83;;;11.52;;
45254;SDS011;30989;52.078;21.014;2023-05-13T04:16:57;24.92;;;9.65;;
45254;SDS011;30989;52.078;21.014;2023-05-13T04:19:23;33.70;;;13.48;;
45254;SDS011;30989;52.078;21.014;2023-05-13T04:21:48;33.58;;;13.70;;
45254;SDS011;30989;52.078;21.014;2023-05-13T04:24:13;23.67;;;11.15;;
45254;SDS011;30989;52.078;21.014;2023-05-13T04:26:39;25.13;;;10.38;;
45254;SDS011;30989;52.078;21.014;2023-05-13T04:29:05;20.27;;;9.35;;
45254;SDS011;30989;52.078;21.014;2023-05-13T04:31:31;30.75;;;13.13;;
45254;SDS011;30989;52.078;21.014;2023-05-13T04:33:56;21.48;;;10.32;;
45254;SDS011;30989;52.078;21.014;2023-05-13T04:36:22;22.90;;;9.05;;
45254;SDS011;30989;52.078;21.014;2023-05-13T04:38:48;19.30;;;9.13;;
45254;SDS011;30989;52.078;21.014;2023-05-13T04:41:15;18.77;;;8.68;;
45254;SDS011;30989;52.078;21.014;2023-05-13T04:43:43;26.45;;;11.02;;
45254;SDS011;30989;52.078;21.014;2023-05-13T04:46:09;23.73;;;11.23;;
45254;SDS011;30989;52.078;21.014;2023-05-13T04:48:35;17.48;;;9.45;;
45254;SDS011;30989;52.078;21.014;2023-05-13T04:51:01;20.33;;;9.55;;
45254;SDS011;30989;52.078;21.014;2023-05-13T04:53:27;17.17;;;9.40;;
45254;SDS011;30989;52.078;21.014;2023-05-13T04:55:56;17.75;;;8.52;;
45254;SDS011;30989;52.078;21.014;2023-05-13T04:58:26;19.10;;;8.63;;
45254;SDS011;30989;52.078;21.014;2023-05-13T05:00:52;28.05;;;9.57;;
45254;SDS011;30989;52.078;21.014;2023-05-13T05:03:18;21.90;;;9.18;;
45254;SDS011;30989;52.078;21.014;2023-05-13T05:05:44;20.17;;;8.35;;
45254;SDS011;30989;52.078;21.014;2023-05-13T05:08:11;16.77;;;7.82;;
45254;SDS011;30989;52.078;21.014;2023-05-13T05:10:36;16.30;;;8.10;;
45254;SDS011;30989;52.078;21.014;2023-05-13T05:13:02;19.55;;;8.95;;
45254;SDS011;30989;52.078;21.014;2023-05-13T05:15:27;15.95;;;8.60;;
45254;SDS011;30989;52.078;21.014;2023-05-13T05:17:56;13.75;;;7.80;;
45254;SDS011;30989;52.078;21.014;2023-05-13T05:20:22;25.05;;;8.32;;
45254;SDS011;30989;52.078;21.014;2023-05-13T05:22:49;19.95;;;8.23;;
45254;SDS011;30989;52.078;21.014;2023-05-13T05:25:15;14.85;;;8.20;;
45254;SDS011;30989;52.078;21.014;2023-05-13T05:27:41;23.33;;;9.38;;
45254;SDS011;30989;52.078;21.014;2023-05-13T05:30:07;29.98;;;9.07;;
45254;SDS011;30989;52.078;21.014;2023-05-13T05:32:35;19.42;;;8.75;;
45254;SDS011;30989;52.078;21.014;2023-05-13T05:35:01;25.27;;;10.23;;
45254;SDS011;30989;52.078;21.014;2023-05-13T05:37:29;19.55;;;9.02;;
45254;SDS011;30989;52.078;21.014;2023-05-13T05:39:55;17.80;;;7.97;;
45254;SDS011;30989;52.078;21.014;2023-05-13T05:42:21;22.38;;;8.15;;
45254;SDS011;30989;52.078;21.014;2023-05-13T05:44:46;17.63;;;8.27;;
45254;SDS011;30989;52.078;21.014;2023-05-13T05:47:12;13.77;;;7.97;;
45254;SDS011;30989;52.078;21.014;2023-05-13T05:49:37;17.00;;;8.55;;
45254;SDS011;30989;52.078;21.014;2023-05-13T05:52:03;17.13;;;8.40;;
45254;SDS011;30989;52.078;21.014;2023-05-13T05:54:29;16.35;;;6.28;;
45254;SDS011;30989;52.078;21.014;2023-05-13T05:56:55;17.23;;;6.80;;
45254;SDS011;30989;52.078;21.014;2023-05-13T05:59:20;13.48;;;6.10;;
45254;SDS011;30989;52.078;21.014;2023-05-13T06:01:47;15.18;;;7.25;;
45254;SDS011;30989;52.078;21.014;2023-05-13T06:04:13;13.55;;;6.68;;
45254;SDS011;30989;52.078;21.014;2023-05-13T06:06:38;18.33;;;8.43;;
45254;SDS011;30989;52.078;21.014;2023-05-13T06:09:05;17.42;;;7.57;;
45254;SDS011;30989;52.078;21.014;2023-05-13T06:11:31;18.33;;;7.28;;
45254;SDS011;30989;52.078;21.014;2023-05-13T06:13:57;14.60;;;6.07;;
45254;SDS011;30989;52.078;21.014;2023-05-13T06:16:22;11.18;;;5.50;;
45254;SDS011;30989;52.078;21.014;2023-05-13T06:18:48;13.55;;;5.68;;
45254;SDS011;30989;52.078;21.014;2023-05-13T06:21:13;10.48;;;5.32;;
45254;SDS011;30989;52.078;21.014;2023-05-13T06:23:39;11.07;;;6.13;;
45254;SDS011;30989;52.078;21.014;2023-05-13T06:26:05;18.02;;;5.80;;
45254;SDS011;30989;52.078;21.014;2023-05-13T06:28:32;9.18;;;4.40;;
45254;SDS011;30989;52.078;21.014;2023-05-13T06:30:58;14.65;;;6.22;;
45254;SDS011;30989;52.078;21.014;2023-05-13T06:33:23;12.20;;;4.72;;
45254;SDS011;30989;52.078;21.014;2023-05-13T06:35:49;11.00;;;4.72;;
45254;SDS011;30989;52.078;21.014;2023-05-13T06:38:15;9.38;;;4.47;;
45254;SDS011;30989;52.078;21.014;2023-05-13T06:40:47;8.73;;;3.83;;
45254;SDS011;30989;52.078;21.014;2023-05-13T06:43:14;13.48;;;4.45;;
45254;SDS011;30989;52.078;21.014;2023-05-13T06:45:45;6.03;;;3.58;;
45254;SDS011;30989;52.078;21.014;2023-05-13T06:48:11;6.60;;;3.45;;
45254;SDS011;30989;52.078;21.014;2023-05-13T06:50:37;10.07;;;4.15;;
45254;SDS011;30989;52.078;21.014;2023-05-13T06:53:02;14.05;;;4.22;;
45254;SDS011;30989;52.078;21.014;2023-05-13T06:55:28;8.40;;;3.67;;
45254;SDS011;30989;52.078;21.014;2023-05-13T06:57:53;6.50;;;3.13;;
45254;SDS011;30989;52.078;21.014;2023-05-13T07:00:19;8.43;;;3.42;;
45254;SDS011;30989;52.078;21.014;2023-05-13T07:02:44;7.63;;;3.05;;
45254;SDS011;30989;52.078;21.014;2023-05-13T07:05:10;10.00;;;3.40;;
45254;SDS011;30989;52.078;21.014;2023-05-13T07:07:36;7.25;;;3.58;;
45254;SDS011;30989;52.078;21.014;2023-05-13T07:10:02;15.85;;;4.40;;
45254;SDS011;30989;52.078;21.014;2023-05-13T07:12:27;7.63;;;3.50;;
45254;SDS011;30989;52.078;21.014;2023-05-13T07:14:53;8.15;;;3.63;;
45254;SDS011;30989;52.078;21.014;2023-05-13T07:17:18;10.52;;;3.60;;
45254;SDS011;30989;52.078;21.014;2023-05-13T07:19:43;9.30;;;3.22;;
45254;SDS011;30989;52.078;21.014;2023-05-13T07:22:09;10.70;;;2.58;;
45254;SDS011;30989;52.078;21.014;2023-05-13T07:24:35;7.25;;;2.65;;
45254;SDS011;30989;52.078;21.014;2023-05-13T07:27:00;11.63;;;3.65;;
45254;SDS011;30989;52.078;21.014;2023-05-13T07:29:29;9.02;;;3.40;;
45254;SDS011;30989;52.078;21.014;2023-05-13T07:31:55;6.40;;;2.90;;
45254;SDS011;30989;52.078;21.014;2023-05-13T07:34:20;4.72;;;2.60;;
45254;SDS011;30989;52.078;21.014;2023-05-13T07:36:45;7.13;;;2.22;;
45254;SDS011;30989;52.078;21.014;2023-05-13T07:39:11;12.80;;;3.67;;
45254;SDS011;30989;52.078;21.014;2023-05-13T07:41:36;4.50;;;2.40;;
45254;SDS011;30989;52.078;21.014;2023-05-13T07:44:02;4.97;;;2.55;;
45254;SDS011;30989;52.078;21.014;2023-05-13T07:46:27;6.15;;;2.40;;
45254;SDS011;30989;52.078;21.014;2023-05-13T07:48:53;4.55;;;2.33;;
45254;SDS011;30989;52.078;21.014;2023-05-13T07:51:18;5.13;;;2.15;;
45254;SDS011;30989;52.078;21.014;2023-05-13T07:53:44;5.43;;;2.63;;
45254;SDS011;30989;52.078;21.014;2023-05-13T07:56:11;4.70;;;1.92;;
45254;SDS011;30989;52.078;21.014;2023-05-13T07:58:36;5.72;;;2.88;;
45254;SDS011;30989;52.078;21.014;2023-05-13T08:01:02;7.93;;;2.83;;
45254;SDS011;30989;52.078;21.014;2023-05-13T08:03:29;6.97;;;2.53;;
45254;SDS011;30989;52.078;21.014;2023-05-13T08:05:55;3.78;;;2.08;;
45254;SDS011;30989;52.078;21.014;2023-05-13T08:08:20;5.40;;;2.50;;
45254;SDS011;30989;52.078;21.014;2023-05-13T08:10:46;7.25;;;2.95;;
45254;SDS011;30989;52.078;21.014;2023-05-13T08:13:11;6.10;;;2.58;;
45254;SDS011;30989;52.078;21.014;2023-05-13T08:15:37;3.75;;;1.73;;
45254;SDS011;30989;52.078;21.014;2023-05-13T08:18:02;5.90;;;2.00;;
45254;SDS011;30989;52.078;21.014;2023-05-13T08:20:28;4.57;;;2.28;;
45254;SDS011;30989;52.078;21.014;2023-05-13T08:22:54;8.48;;;2.80;;
45254;SDS011;30989;52.078;21.014;2023-05-13T08:25:21;5.10;;;2.30;;
45254;SDS011;30989;52.078;21.014;2023-05-13T08:27:46;8.68;;;2.25;;
45254;SDS011;30989;52.078;21.014;2023-05-13T08:30:12;4.43;;;2.05;;
45254;SDS011;30989;52.078;21.014;2023-05-13T08:32:37;7.90;;;2.10;;
45254;SDS011;30989;52.078;21.014;2023-05-13T08:35:03;8.80;;;2.35;;
45254;SDS011;30989;52.078;21.014;2023-05-13T08:37:29;7.45;;;2.25;;
45254;SDS011;30989;52.078;21.014;2023-05-13T08:39:54;4.30;;;2.47;;
45254;SDS011;30989;52.078;21.014;2023-05-13T08:42:20;5.07;;;1.77;;
45254;SDS011;30989;52.078;21.014;2023-05-13T08:44:47;4.03;;;2.00;;
45254;SDS011;30989;52.078;21.014;2023-05-13T08:49:47;3.75;;;1.73;;
45254;SDS011;30989;52.078;21.014;2023-05-13T08:52:14;9.43;;;4.82;;
45254;SDS011;30989;52.078;21.014;2023-05-13T08:54:41;7.45;;;2.45;;
45254;SDS011;30989;52.078;21.014;2023-05-13T08:57:08;6.32;;;1.95;;
45254;SDS011;30989;52.078;21.014;2023-05-13T08:59:33;5.32;;;1.50;;
45254;SDS011;30989;52.078;21.014;2023-05-13T09:01:58;3.72;;;1.70;;
45254;SDS011;30989;52.078;21.014;2023-05-13T09:04:27;2.78;;;1.50;;
45254;SDS011;30989;52.078;21.014;2023-05-13T09:06:54;2.85;;;1.50;;
45254;SDS011;30989;52.078;21.014;2023-05-13T09:09:19;3.80;;;1.30;;
45254;SDS011;30989;52.078;21.014;2023-05-13T09:11:46;3.15;;;1.27;;
45254;SDS011;30989;52.078;21.014;2023-05-13T09:14:12;3.70;;;1.63;;
45254;SDS011;30989;52.078;21.014;2023-05-13T09:16:38;2.92;;;1.40;;
45254;SDS011;30989;52.078;21.014;2023-05-13T09:19:04;3.45;;;1.45;;
45254;SDS011;30989;52.078;21.014;2023-05-13T09:21:32;4.13;;;2.00;;
45254;SDS011;30989;52.078;21.014;2023-05-13T09:24:10;5.18;;;1.92;;
45254;SDS011;30989;52.078;21.014;2023-05-13T09:26:37;4.60;;;1.55;;
45254;SDS011;30989;52.078;21.014;2023-05-13T09:31:42;3.20;;;1.45;;
45254;SDS011;30989;52.078;21.014;2023-05-13T09:34:09;2.90;;;1.40;;
45254;SDS011;30989;52.078;21.014;2023-05-13T09:36:35;2.78;;;1.50;;
45254;SDS011;30989;52.078;21.014;2023-05-13T09:39:01;17.50;;;1.65;;
45254;SDS011;30989;52.078;21.014;2023-05-13T09:41:28;4.32;;;1.40;;
45254;SDS011;30989;52.078;21.014;2023-05-13T09:43:54;2.83;;;1.33;;
45254;SDS011;30989;52.078;21.014;2023-05-13T09:46:20;11.80;;;7.20;;
45254;SDS011;30989;52.078;21.014;2023-05-13T09:48:45;5.00;;;2.20;;
45254;SDS011;30989;52.078;21.014;2023-05-13T09:51:11;3.70;;;1.85;;
45254;SDS011;30989;52.078;21.014;2023-05-13T09:53:41;2.75;;;1.25;;
45254;SDS011;30989;52.078;21.014;2023-05-13T09:56:07;4.63;;;1.45;;
45254;SDS011;30989;52.078;21.014;2023-05-13T09:58:34;2.47;;;1.20;;
45254;SDS011;30989;52.078;21.014;2023-05-13T10:01:00;4.72;;;2.00;;
45254;SDS011;30989;52.078;21.014;2023-05-13T10:03:27;4.80;;;2.42;;
45254;SDS011;30989;52.078;21.014;2023-05-13T10:05:53;5.15;;;2.17;;
45254;SDS011;30989;52.078;21.014;2023-05-13T10:08:20;3.38;;;1.40;;
45254;SDS011;30989;52.078;21.014;2023-05-13T10:10:46;4.28;;;2.20;;
45254;SDS011;30989;52.078;21.014;2023-05-13T10:13:14;3.75;;;1.52;;
45254;SDS011;30989;52.078;21.014;2023-05-13T10:16:00;4.00;;;1.13;;
45254;SDS011;30989;52.078;21.014;2023-05-13T10:18:26;7.03;;;2.10;;
45254;SDS011;30989;52.078;21.014;2023-05-13T10:20:53;2.47;;;1.52;;
45254;SDS011;30989;52.078;21.014;2023-05-13T10:23:19;5.07;;;1.55;;
45254;SDS011;30989;52.078;21.014;2023-05-13T10:25:52;4.32;;;2.25;;
45254;SDS011;30989;52.078;21.014;2023-05-13T10:28:18;8.55;;;1.58;;
45254;SDS011;30989;52.078;21.014;2023-05-13T10:30:44;2.70;;;1.48;;
45254;SDS011;30989;52.078;21.014;2023-05-13T10:33:10;4.93;;;1.38;;
45254;SDS011;30989;52.078;21.014;2023-05-13T10:35:36;2.85;;;1.60;;
45254;SDS011;30989;52.078;21.014;2023-05-13T10:38:28;5.38;;;1.23;;
45254;SDS011;30989;52.078;21.014;2023-05-13T10:44:17;9.48;;;2.17;;
45254;SDS011;30989;52.078;21.014;2023-05-13T10:46:46;5.00;;;1.77;;
45254;SDS011;30989;52.078;21.014;2023-05-13T10:49:15;3.42;;;1.35;;
45254;SDS011;30989;52.078;21.014;2023-05-13T10:51:44;3.67;;;1.55;;
45254;SDS011;30989;52.078;21.014;2023-05-13T10:54:17;2.53;;;1.42;;
45254;SDS011;30989;52.078;21.014;2023-05-13T10:56:44;8.90;;;1.48;;
45254;SDS011;30989;52.078;21.014;2023-05-13T10:59:10;9.07;;;2.13;;
45254;SDS011;30989;52.078;21.014;2023-05-13T11:01:37;2.80;;;1.30;;
45254;SDS011;30989;52.078;21.014;2023-05-13T11:04:10;3.97;;;2.03;;
45254;SDS011;30989;52.078;21.014;2023-05-13T11:06:41;2.90;;;1.77;;
45254;SDS011;30989;52.078;21.014;2023-05-13T11:09:27;3.95;;;1.55;;
45254;SDS011;30989;52.078;21.014;2023-05-13T11:11:57;8.38;;;1.50;;
45254;SDS011;30989;52.078;21.014;2023-05-13T11:14:28;4.78;;;2.03;;
45254;SDS011;30989;52.078;21.014;2023-05-13T11:19:26;6.57;;;1.50;;
45254;SDS011;30989;52.078;21.014;2023-05-13T11:21:57;9.85;;;2.13;;
45254;SDS011;30989;52.078;21.014;2023-05-13T11:24:28;2.55;;;1.33;;
45254;SDS011;30989;52.078;21.014;2023-05-13T11:26:55;4.43;;;1.50;;
45254;SDS011;30989;52.078;21.014;2023-05-13T11:29:36;5.93;;;1.48;;
45254;SDS011;30989;52.078;21.014;2023-05-13T11:32:03;3.40;;;1.40;;
45254;SDS011;30989;52.078;21.014;2023-05-13T11:34:30;7.10;;;1.45;;
45254;SDS011;30989;52.078;21.014;2023-05-13T11:39:27;3.47;;;1.30;;
45254;SDS011;30989;52.078;21.014;2023-05-13T11:41:53;4.90;;;1.52;;
45254;SDS011;30989;52.078;21.014;2023-05-13T11:44:22;3.25;;;1.15;;
45254;SDS011;30989;52.078;21.014;2023-05-13T11:46:58;4.25;;;1.42;;
45254;SDS011;30989;52.078;21.014;2023-05-13T11:49:31;5.18;;;1.42;;
45254;SDS011;30989;52.078;21.014;2023-05-13T11:52:02;2.70;;;1.48;;
45254;SDS011;30989;52.078;21.014;2023-05-13T11:54:29;3.40;;;1.33;;
45254;SDS011;30989;52.078;21.014;2023-05-13T11:56:55;4.20;;;2.00;;
45254;SDS011;30989;52.078;21.014;2023-05-13T11:59:20;4.15;;;1.60;;
45254;SDS011;30989;52.078;21.014;2023-05-13T12:01:57;4.43;;;2.60;;
45254;SDS011;30989;52.078;21.014;2023-05-13T12:04:29;4.30;;;1.42;;
45254;SDS011;30989;52.078;21.014;2023-05-13T12:06:55;3.88;;;1.50;;
45254;SDS011;30989;52.078;21.014;2023-05-13T12:09:24;4.65;;;1.50;;
45254;SDS011;30989;52.078;21.014;2023-05-13T12:11:50;6.20;;;2.13;;
45254;SDS011;30989;52.078;21.014;2023-05-13T12:14:17;3.25;;;1.20;;
45254;SDS011;30989;52.078;21.014;2023-05-13T12:16:44;4.22;;;1.45;;
45254;SDS011;30989;52.078;21.014;2023-05-13T12:19:10;3.00;;;1.50;;
45254;SDS011;30989;52.078;21.014;2023-05-13T12:21:36;3.60;;;1.55;;
45254;SDS011;30989;52.078;21.014;2023-05-13T12:24:15;3.05;;;1.52;;
45254;SDS011;30989;52.078;21.014;2023-05-13T12:26:41;3.05;;;1.15;;
45254;SDS011;30989;52.078;21.014;2023-05-13T12:29:06;4.40;;;1.30;;
45254;SDS011;30989;52.078;21.014;2023-05-13T12:31:32;4.63;;;1.50;;
45254;SDS011;30989;52.078;21.014;2023-05-13T12:33:57;2.50;;;1.40;;
45254;SDS011;30989;52.078;21.014;2023-05-13T12:36:26;6.60;;;1.65;;
45254;SDS011;30989;52.078;21.014;2023-05-13T12:41:28;3.42;;;1.30;;
45254;SDS011;30989;52.078;21.014;2023-05-13T12:43:58;5.03;;;1.63;;
45254;SDS011;30989;52.078;21.014;2023-05-13T12:46:28;3.35;;;0.90;;
45254;SDS011;30989;52.078;21.014;2023-05-13T12:48:55;3.70;;;0.93;;
45254;SDS011;30989;52.078;21.014;2023-05-13T12:51:21;2.85;;;1.10;;
45254;SDS011;30989;52.078;21.014;2023-05-13T12:53:47;2.55;;;1.10;;
45254;SDS011;30989;52.078;21.014;2023-05-13T12:56:13;2.60;;;1.50;;
45254;SDS011;30989;52.078;21.014;2023-05-13T12:58:38;4.00;;;1.55;;
45254;SDS011;30989;52.078;21.014;2023-05-13T13:01:04;3.78;;;1.10;;
45254;SDS011;30989;52.078;21.014;2023-05-13T13:03:30;5.63;;;2.15;;
45254;SDS011;30989;52.078;21.014;2023-05-13T13:05:55;3.08;;;1.60;;
45254;SDS011;30989;52.078;21.014;2023-05-13T13:08:22;2.30;;;1.35;;
45254;SDS011;30989;52.078;21.014;2023-05-13T13:10:47;5.20;;;1.65;;
45254;SDS011;30989;52.078;21.014;2023-05-13T13:13:13;3.50;;;1.67;;
45254;SDS011;30989;52.078;21.014;2023-05-13T13:15:38;6.20;;;1.80;;
45254;SDS011;30989;52.078;21.014;2023-05-13T13:18:04;3.85;;;1.55;;
45254;SDS011;30989;52.078;21.014;2023-05-13T13:20:29;3.35;;;1.17;;
45254;SDS011;30989;52.078;21.014;2023-05-13T13:22:55;3.25;;;1.45;;
45254;SDS011;30989;52.078;21.014;2023-05-13T13:25:20;4.85;;;2.00;;
45254;SDS011;30989;52.078;21.014;2023-05-13T13:27:46;7.05;;;2.20;;
45254;SDS011;30989;52.078;21.014;2023-05-13T13:30:12;2.45;;;1.52;;
45254;SDS011;30989;52.078;21.014;2023-05-13T13:32:38;6.78;;;2.33;;
45254;SDS011;30989;52.078;21.014;2023-05-13T13:35:04;2.97;;;1.40;;
45254;SDS011;30989;52.078;21.014;2023-05-13T13:37:29;4.03;;;1.98;;
45254;SDS011;30989;52.078;21.014;2023-05-13T13:39:55;3.97;;;1.60;;
45254;SDS011;30989;52.078;21.014;2023-05-13T13:42:20;3.00;;;1.23;;
45254;SDS011;30989;52.078;21.014;2023-05-13T13:44:46;6.55;;;2.00;;
45254;SDS011;30989;52.078;21.014;2023-05-13T13:47:12;6.88;;;2.88;;
45254;SDS011;30989;52.078;21.014;2023-05-13T13:49:37;3.50;;;1.48;;
45254;SDS011;30989;52.078;21.014;2023-05-13T13:52:03;5.28;;;1.33;;
45254;SDS011;30989;52.078;21.014;2023-05-13T13:54:28;3.83;;;1.98;;
45254;SDS011;30989;52.078;21.014;2023-05-13T13:56:54;9.80;;;2.17;;
45254;SDS011;30989;52.078;21.014;2023-05-13T13:59:19;3.45;;;1.60;;
45254;SDS011;30989;52.078;21.014;2023-05-13T14:01:45;2.60;;;1.55;;
45254;SDS011;30989;52.078;21.014;2023-05-13T14:06:36;5.53;;;1.50;;
45254;SDS011;30989;52.078;21.014;2023-05-13T14:09:02;3.58;;;1.13;;
45254;SDS011;30989;52.078;21.014;2023-05-13T14:11:28;2.85;;;1.20;;
45254;SDS011;30989;52.078;21.014;2023-05-13T14:13:53;4.88;;;1.73;;
45254;SDS011;30989;52.078;21.014;2023-05-13T14:16:19;2.60;;;1.20;;
45254;SDS011;30989;52.078;21.014;2023-05-13T14:18:44;3.42;;;1.23;;
45254;SDS011;30989;52.078;21.014;2023-05-13T14:21:09;3.80;;;1.50;;
45254;SDS011;30989;52.078;21.014;2023-05-13T14:23:35;4.10;;;1.75;;
45254;SDS011;30989;52.078;21.014;2023-05-13T14:26:01;3.85;;;1.30;;
45254;SDS011;30989;52.078;21.014;2023-05-13T14:28:26;3.63;;;1.48;;
45254;SDS011;30989;52.078;21.014;2023-05-13T14:30:52;6.15;;;1.90;;
45254;SDS011;30989;52.078;21.014;2023-05-13T14:33:17;4.22;;;2.03;;
45254;SDS011;30989;52.078;21.014;2023-05-13T14:35:43;5.53;;;1.45;;
45254;SDS011;30989;52.078;21.014;2023-05-13T14:38:08;5.25;;;1.70;;
45254;SDS011;30989;52.078;21.014;2023-05-13T14:40:33;2.92;;;1.50;;
45254;SDS011;30989;52.078;21.014;2023-05-13T14:42:59;3.55;;;1.50;;
45254;SDS011;30989;52.078;21.014;2023-05-13T14:45:25;3.03;;;1.20;;
45254;SDS011;30989;52.078;21.014;2023-05-13T14:47:50;5.68;;;1.50;;
45254;SDS011;30989;52.078;21.014;2023-05-13T14:50:18;2.30;;;1.40;;